ZJSYVVTS

Guest
Details From ZJSY - Phoenix Intl
To VVTS - Tansonnhat Intl
Flight Number -
Tags Generated
Created
Modified
Stats Distance 478 nm / 884 km
Max Altitude 0 ft / 0 m
Waypoints 3
Social Downloads 4
Likes 0
Share VATSIM

Download

Looking for another format? Having issues loading an existing format? Contact us
Advertisement - Login to hide

Notes

Generated

Route

ZJSY TSN VVTS

ID Type Via Altitude Latitude Longitude Leg Dist Tot Dist Heading (true) Name
O ZJSY APT - 0 ft / 0 m 18.30083˚ 109.39639˚ - 0 nm - -
TSN VOR - 0 ft / 0 m 10.81643˚ 106.64557˚ 477 nm 477 nm 200° / 199° TANSONNHAT VOR-DME
O VVTS APT - 0 ft / 0 m 10.81502˚ 106.63712˚ 0 nm 477 nm 260° / 260° -

Altitude Profile

Advertisement - Login to hide

Weather


0- 5 10 15 20 25 30 35+ Temperature / ° C

Clouds and Precipitation
Forecast for 2017-12-18 06:00 UTC. Updated a few seconds ago

Ground ~20,000 ft ~40,000 ft Winds

ZJSY

Details ICAO ZJSY (SYX)
Name PHOENIX INTL
Region China
Timezone Asia/Chongqing (UTC+8.0)
Stats Elevation 92 ft / 28 m (AMSL)
Location 18.302892° 109.412268°
Runways 1
Magnetic Variation 1.586° W

METAR

ZJSY 180300Z 25002MPS 190V320 CAVOK 21/08 Q1024 NOSIG

Decode

TAF

Not found

Departure Runways

ID Width Length Bearing (true) Bearing (mag) Surface Threshold Offset Overrun Length
08 148 ft / 45 m 11,103 ft / 3,384 m 82.20° 83.79° Concrete 0 ft / 0 m 195 ft / 59 m
26 148 ft / 45 m 11,103 ft / 3,384 m 262.21° 263.80° Concrete 0 ft / 0 m 195 ft / 59 m

VVTS

Details ICAO VVTS (SGN)
Name TAN SON NHAT INTL
Region Vietnam
Timezone Asia/Ho_Chi_Minh (UTC+7.0)
Stats Elevation 33 ft / 10 m (AMSL)
Location 10.818750° 106.651735°
Runways 2
Magnetic Variation 0.488° W

METAR

VVTS 180300Z 04007KT CAVOK 25/16 Q1015 NOSIG

Decode

TAF

TAF VVTS 172300Z 1800/1906 03009KT 9999 SCT017

Decode

Destination Runways

ID Width Length Bearing (true) Bearing (mag) Surface Threshold Offset Overrun Length
07L 148 ft / 45 m 9,998 ft / 3,047 m 69.00° 69.49° Asphalt 0 ft / 0 m 1,040 ft / 317 m
07R 148 ft / 45 m 12,617 ft / 3,846 m 68.90° 69.39° Concrete 2,543 ft / 775 m 863 ft / 263 m
25L 148 ft / 45 m 12,617 ft / 3,846 m 248.90° 249.39° Concrete 0 ft / 0 m 1,027 ft / 313 m
25R 148 ft / 45 m 9,998 ft / 3,047 m 249.00° 249.49° Asphalt 0 ft / 0 m 1,053 ft / 321 m

Approach Navaids

Runway Type Ident Frequency Range Bearing (true) Bearing (mag) Slope Elevation
25L Localiser SGN 108.30 MHz 18 nm / 33 km 248.96° 249.45° - 24 ft / 7 m (AMSL)
25L Glidescope SGN 108.30 MHz 10 nm / 19 km 248.90° 249.39° 3.00° 49 ft / 15 m (AMSL)
25L DME SGN 108.30 MHz 18 nm / 33 km - - - 33 ft / 10 m (AMSL)
25R Localiser HCM 110.50 MHz 18 nm / 33 km 248.99° 249.48° - 25 ft / 8 m (AMSL)
25R Glidescope HCM 110.50 MHz 10 nm / 19 km 249.00° 249.49° 3.00° 32 ft / 10 m (AMSL)
25R DME HCM 110.50 MHz 18 nm / 33 km - - - 33 ft / 10 m (AMSL)